METAR Formatted Surface Weather Observation
Issued by NWS

Home | Current Version | Previous Version | Text Only | Print | Product List | Glossary On
Versions: 1 2 3
659
SAUS45 KABQ 262157
MTRTCS
METAR KTCS 262153Z AUTO 29013KT 10SM SCT110 31/12 A3009 RMK AO2
WSHFT 2059 SLP094 T03060117 TSNO



USA.gov is the U.S. government's official web portal to all federal, state and local government web resources and services.